Time;durP1;ratioP1;P1;durP2;ratioP2;P2;SDS_P1;SDS_P2;PMS_P1;PMS_P2;Temp;Humidity;BMP_temperature;BMP_pressure;BME280_temperature;BME280_humidity;BME280_pressure;Samples;Min_cycle;Max_cycle;Signal;HPM_P1;HPM_P2
2023/11/06 00:01:16;;;;;;;;;;;15.60;90.40;;;;;;4058571;29;20274;-53
2023/11/06 00:03:57;;;;;;;;;;;15.60;90.10;;;;;;4059636;29;19978;-48
2023/11/06 00:06:38;;;;;;;;;;;15.60;90.00;;;;;;4059607;29;19933;-52
2023/11/06 00:09:18;;;;;;;;;;;15.60;90.10;;;;;;4059420;29;20389;-53
2023/11/06 00:11:59;;;;;;;;;;;15.60;90.10;;;;;;4058897;29;19934;-49
2023/11/06 00:14:41;;;;;;;;;;;15.60;90.50;;;;;;4059196;29;20078;-50
2023/11/06 00:17:22;;;;;;;;;;;15.60;90.30;;;;;;4046547;29;19934;-49
2023/11/06 00:20:04;;;;;;;;;;;15.60;90.90;;;;;;4043238;29;20059;-49
2023/11/06 00:22:45;;;;;;;;;;;15.50;90.90;;;;;;4031955;29;19950;-54
2023/11/06 00:25:26;;;;;;;;;;;15.50;90.60;;;;;;4042942;29;19978;-50
2023/11/06 00:28:07;;;;;;;;;;;15.50;90.70;;;;;;4043148;29;20430;-49
2023/11/06 00:30:49;;;;;;;;;;;15.50;90.70;;;;;;4043327;29;19933;-53
2023/11/06 00:33:30;;;;;;;;;;;15.50;90.60;;;;;;4043016;29;19979;-53
2023/11/06 00:36:17;;;;;;;;;;;15.50;90.50;;;;;;4042750;29;19935;-52
2023/11/06 00:38:58;;;;;;;;;;;15.50;90.20;;;;;;4043552;29;20018;-53
2023/11/06 00:41:39;;;;;;;;;;;15.50;90.10;;;;;;4042847;29;19955;-52
2023/11/06 00:44:20;;;;;;;;;;;15.50;90.50;;;;;;4043150;29;19938;-53
2023/11/06 00:47:02;;;;;;;;;;;15.40;89.90;;;;;;4031689;29;19935;-49
2023/11/06 00:49:43;;;;;;;;;;;15.50;89.70;;;;;;4042901;29;20402;-49
2023/11/06 00:52:25;;;;;;;;;;;15.40;90.00;;;;;;4042744;29;20383;-51
2023/11/06 00:55:05;;;;;;;;;;;15.40;90.00;;;;;;4031556;29;20042;-52
2023/11/06 00:57:49;;;;;;;;;;;15.40;89.70;;;;;;4041807;29;19934;-50
2023/11/06 01:00:30;;;;;;;;;;;15.40;89.60;;;;;;4042532;29;19935;-53
2023/11/06 01:03:13;;;;;;;;;;;15.40;89.80;;;;;;4033105;29;19934;-51
2023/11/06 01:05:53;;;;;;;;;;;15.40;89.90;;;;;;4041340;29;19934;-48
2023/11/06 01:08:34;;;;;;;;;;;15.30;90.30;;;;;;4040307;29;19938;-52
2023/11/06 01:11:15;;;;;;;;;;;15.40;89.90;;;;;;4039185;29;20087;-53
2023/11/06 01:13:56;;;;;;;;;;;15.30;89.90;;;;;;4037746;29;19973;-52
2023/11/06 01:16:38;;;;;;;;;;;15.30;89.90;;;;;;4042302;29;19942;-50
2023/11/06 01:19:21;;;;;;;;;;;15.30;90.00;;;;;;4055020;29;19934;-52
2023/11/06 01:22:01;;;;;;;;;;;15.30;90.10;;;;;;4041494;29;19955;-49
2023/11/06 01:24:44;;;;;;;;;;;15.30;89.70;;;;;;4036929;29;20000;-50
2023/11/06 01:27:25;;;;;;;;;;;15.30;89.90;;;;;;4027660;29;19942;-50
2023/11/06 01:30:07;;;;;;;;;;;15.30;90.00;;;;;;4031185;29;19934;-51
2023/11/06 01:32:48;;;;;;;;;;;15.30;90.30;;;;;;4041941;29;20282;-50
2023/11/06 01:35:32;;;;;;;;;;;15.30;89.50;;;;;;4048682;29;19934;-50
2023/11/06 01:38:13;;;;;;;;;;;15.30;89.90;;;;;;4045236;29;19955;-51
2023/11/06 01:40:53;;;;;;;;;;;15.30;89.60;;;;;;4059104;29;19994;-53
2023/11/06 01:43:35;;;;;;;;;;;15.30;89.10;;;;;;4059204;29;19942;-48
2023/11/06 01:46:16;;;;;;;;;;;15.20;89.80;;;;;;4045963;29;20029;-48
2023/11/06 01:48:57;;;;;;;;;;;15.20;90.00;;;;;;4059768;29;19938;-50
2023/11/06 01:51:40;;;;;;;;;;;15.20;90.00;;;;;;4058078;29;20319;-50
2023/11/06 01:54:20;;;;;;;;;;;15.20;90.00;;;;;;4044861;29;19938;-51
2023/11/06 01:57:03;;;;;;;;;;;15.20;90.00;;;;;;4044144;29;19938;-52
2023/11/06 01:59:44;;;;;;;;;;;15.20;90.00;;;;;;4045065;29;19946;-48
2023/11/06 02:02:27;;;;;;;;;;;15.20;90.20;;;;;;4044722;29;20500;-50
2023/11/06 02:05:09;;;;;;;;;;;15.20;90.10;;;;;;4033454;29;19942;-49
2023/11/06 02:07:51;;;;;;;;;;;15.20;90.10;;;;;;4032800;29;19934;-50
2023/11/06 02:10:32;;;;;;;;;;;15.20;89.60;;;;;;4052006;29;19934;-50
2023/11/06 02:13:14;;;;;;;;;;;15.10;89.50;;;;;;4060278;29;20579;-49
2023/11/06 02:15:54;;;;;;;;;;;15.20;89.70;;;;;;4060561;29;20382;-48
2023/11/06 02:18:39;;;;;;;;;;;15.10;89.90;;;;;;4048802;29;19951;-53
2023/11/06 02:21:20;;;;;;;;;;;15.10;89.70;;;;;;4048565;29;19934;-49
2023/11/06 02:24:02;;;;;;;;;;;15.10;89.20;;;;;;4060208;29;20484;-50
2023/11/06 02:26:53;;;;;;;;;;;15.10;89.70;;;;;;4060646;29;20597;-48
2023/11/06 02:29:34;;;;;;;;;;;15.10;89.70;;;;;;4048349;29;19934;-48
2023/11/06 02:32:16;;;;;;;;;;;15.10;89.50;;;;;;4061020;29;19938;-48
2023/11/06 02:34:57;;;;;;;;;;;15.10;89.20;;;;;;4060490;29;19934;-48
2023/11/06 02:37:38;;;;;;;;;;;15.10;89.30;;;;;;4048784;29;19938;-49
2023/11/06 02:40:20;;;;;;;;;;;15.10;89.20;;;;;;4041636;29;20287;-53
2023/11/06 02:43:01;;;;;;;;;;;15.10;89.80;;;;;;4033034;29;20465;-52
2023/11/06 02:45:44;;;;;;;;;;;15.00;90.10;;;;;;4032772;29;19955;-52
2023/11/06 02:48:25;;;;;;;;;;;15.00;89.50;;;;;;4044485;29;20507;-54
2023/11/06 02:51:06;;;;;;;;;;;15.00;89.30;;;;;;4044879;29;19982;-53
2023/11/06 02:53:47;;;;;;;;;;;15.00;89.40;;;;;;4044658;29;20002;-53
2023/11/06 02:56:34;;;;;;;;;;;15.00;89.40;;;;;;4032569;29;19971;-49
2023/11/06 02:59:15;;;;;;;;;;;15.00;89.40;;;;;;4043271;29;19970;-50
2023/11/06 03:01:56;;;;;;;;;;;15.00;89.70;;;;;;4032193;29;19938;-51
2023/11/06 03:04:37;;;;;;;;;;;15.00;90.00;;;;;;4030216;29;20344;-50
2023/11/06 03:07:18;;;;;;;;;;;15.00;90.50;;;;;;4022277;29;19938;-55
2023/11/06 03:09:59;;;;;;;;;;;15.00;90.00;;;;;;4039460;29;19955;-53
2023/11/06 03:12:41;;;;;;;;;;;15.00;90.00;;;;;;4014658;29;19938;-51
2023/11/06 03:15:22;;;;;;;;;;;15.00;90.00;;;;;;4038676;29;19970;-53
2023/11/06 03:18:03;;;;;;;;;;;15.00;90.00;;;;;;4026059;29;20412;-52
2023/11/06 03:20:46;;;;;;;;;;;15.00;90.00;;;;;;4015477;29;19939;-53
2023/11/06 03:23:27;;;;;;;;;;;14.90;90.00;;;;;;4028696;29;19935;-54
2023/11/06 03:26:08;;;;;;;;;;;15.00;90.00;;;;;;4036540;29;19938;-55
2023/11/06 03:28:50;;;;;;;;;;;15.00;90.10;;;;;;4039017;29;19951;-54
2023/11/06 03:31:32;;;;;;;;;;;15.00;90.10;;;;;;4037513;29;20075;-52
2023/11/06 03:34:13;;;;;;;;;;;15.00;90.00;;;;;;4030067;29;20444;-54
2023/11/06 03:36:53;;;;;;;;;;;14.90;90.00;;;;;;4029086;29;19934;-50
2023/11/06 03:39:36;;;;;;;;;;;14.90;90.00;;;;;;4027586;29;20366;-51
2023/11/06 03:42:17;;;;;;;;;;;14.90;90.10;;;;;;4036833;29;20025;-51
2023/11/06 03:44:59;;;;;;;;;;;14.90;90.00;;;;;;4034324;29;19975;-51
2023/11/06 03:47:40;;;;;;;;;;;14.90;90.10;;;;;;4036601;29;19934;-52
2023/11/06 03:50:21;;;;;;;;;;;14.90;89.60;;;;;;4037255;29;20037;-49
2023/11/06 03:53:03;;;;;;;;;;;14.90;89.10;;;;;;4039165;29;19942;-51
2023/11/06 03:55:44;;;;;;;;;;;15.00;89.30;;;;;;4038478;29;20385;-52
2023/11/06 03:58:25;;;;;;;;;;;15.00;89.50;;;;;;4028313;29;20407;-50
2023/11/06 04:01:08;;;;;;;;;;;15.00;89.70;;;;;;4038836;29;20067;-52
2023/11/06 04:03:48;;;;;;;;;;;15.00;89.80;;;;;;4014043;29;20382;-50
2023/11/06 04:06:30;;;;;;;;;;;15.00;89.60;;;;;;4040064;29;19955;-52
2023/11/06 04:09:11;;;;;;;;;;;15.10;89.40;;;;;;4039949;29;19935;-49
2023/11/06 04:11:52;;;;;;;;;;;15.10;89.30;;;;;;4038997;29;19978;-49
2023/11/06 04:14:32;;;;;;;;;;;15.10;89.30;;;;;;4039677;29;19978;-52
2023/11/06 04:17:14;;;;;;;;;;;15.10;88.90;;;;;;4047396;29;19950;-52
2023/11/06 04:19:55;;;;;;;;;;;15.10;89.30;;;;;;4053437;29;19962;-49
2023/11/06 04:22:37;;;;;;;;;;;15.10;88.90;;;;;;4053862;29;19986;-54
2023/11/06 04:25:17;;;;;;;;;;;15.10;89.10;;;;;;4053847;29;19935;-49
2023/11/06 04:27:59;;;;;;;;;;;15.20;89.30;;;;;;4042604;29;20074;-49
2023/11/06 04:30:40;;;;;;;;;;;15.20;90.10;;;;;;4052645;29;20409;-51
2023/11/06 04:33:22;;;;;;;;;;;15.20;89.20;;;;;;4053111;29;19990;-49
2023/11/06 04:36:03;;;;;;;;;;;15.30;89.40;;;;;;4053639;29;19934;-50
2023/11/06 04:38:44;;;;;;;;;;;15.30;89.90;;;;;;4054093;29;19964;-49
2023/11/06 04:41:25;;;;;;;;;;;15.30;88.80;;;;;;4053292;29;19937;-49
2023/11/06 04:44:07;;;;;;;;;;;15.30;88.60;;;;;;4054116;29;20056;-50
2023/11/06 04:46:48;;;;;;;;;;;15.40;90.00;;;;;;4053346;29;19939;-52
2023/11/06 04:49:30;;;;;;;;;;;15.50;88.80;;;;;;4054277;29;19934;-50
2023/11/06 04:52:11;;;;;;;;;;;15.50;88.50;;;;;;4042203;29;19938;-53
2023/11/06 04:54:51;;;;;;;;;;;15.50;88.40;;;;;;4054596;29;19949;-50
2023/11/06 04:57:32;;;;;;;;;;;15.50;88.70;;;;;;4053360;29;19992;-49
2023/11/06 05:00:13;;;;;;;;;;;15.50;88.90;;;;;;4053760;29;20506;-50
2023/11/06 05:02:54;;;;;;;;;;;15.50;89.00;;;;;;4052201;29;19934;-50
2023/11/06 05:05:37;;;;;;;;;;;15.50;88.60;;;;;;4053912;29;20303;-48
2023/11/06 05:08:18;;;;;;;;;;;15.50;88.90;;;;;;4057716;29;19938;-49
2023/11/06 05:10:59;;;;;;;;;;;15.50;88.70;;;;;;4049396;29;19933;-48
2023/11/06 05:13:39;;;;;;;;;;;15.50;89.00;;;;;;4040695;29;19943;-54
2023/11/06 05:16:20;;;;;;;;;;;15.50;88.60;;;;;;4051675;29;19938;-50
2023/11/06 05:19:01;;;;;;;;;;;15.50;88.90;;;;;;4040956;29;19939;-49
2023/11/06 05:21:43;;;;;;;;;;;15.50;88.90;;;;;;4042544;29;19951;-49
2023/11/06 05:24:24;;;;;;;;;;;15.40;88.80;;;;;;4042457;29;19982;-50
2023/11/06 05:27:05;;;;;;;;;;;15.50;88.70;;;;;;4042260;29;20072;-49
2023/11/06 05:29:46;;;;;;;;;;;15.50;88.50;;;;;;4029900;29;19986;-49
2023/11/06 05:32:27;;;;;;;;;;;15.50;88.50;;;;;;4042582;29;19938;-51
2023/11/06 05:35:09;;;;;;;;;;;15.50;88.70;;;;;;4043973;29;19938;-51
2023/11/06 05:37:52;;;;;;;;;;;15.50;88.90;;;;;;4050785;29;20036;-50
2023/11/06 05:40:33;;;;;;;;;;;15.50;88.90;;;;;;4060700;29;19938;-50
2023/11/06 05:43:14;;;;;;;;;;;15.50;89.20;;;;;;4060763;29;20053;-49
2023/11/06 05:45:54;;;;;;;;;;;15.60;89.20;;;;;;4060550;29;20062;-50
2023/11/06 05:48:35;;;;;;;;;;;15.60;89.10;;;;;;4049458;29;19963;-50
2023/11/06 05:51:16;;;;;;;;;;;15.60;89.20;;;;;;4045346;29;19938;-49
2023/11/06 05:53:58;;;;;;;;;;;15.60;89.10;;;;;;4045595;29;20060;-51
2023/11/06 05:56:39;;;;;;;;;;;15.60;89.00;;;;;;4045694;29;19935;-49
2023/11/06 05:59:19;;;;;;;;;;;15.60;88.90;;;;;;4060975;29;19938;-51
2023/11/06 06:02:01;;;;;;;;;;;15.60;89.10;;;;;;4044356;29;19943;-55
2023/11/06 06:04:41;;;;;;;;;;;15.70;89.20;;;;;;4032896;29;19934;-52
2023/11/06 06:07:22;;;;;;;;;;;15.70;89.30;;;;;;4044731;29;19939;-49
2023/11/06 06:10:05;;;;;;;;;;;15.70;89.10;;;;;;4045026;29;19934;-50
2023/11/06 06:12:47;;;;;;;;;;;15.70;89.00;;;;;;4044712;29;20287;-50
2023/11/06 06:15:28;;;;;;;;;;;15.60;88.30;;;;;;4043387;29;19951;-55
2023/11/06 06:18:08;;;;;;;;;;;15.60;88.10;;;;;;4053163;29;20054;-55
2023/11/06 06:20:49;;;;;;;;;;;15.60;88.20;;;;;;4060023;29;19985;-53
2023/11/06 06:23:30;;;;;;;;;;;15.50;88.50;;;;;;4059817;29;19934;-52
2023/11/06 06:26:12;;;;;;;;;;;15.50;88.70;;;;;;4053154;29;20066;-54
2023/11/06 06:28:52;;;;;;;;;;;15.50;88.40;;;;;;4045045;29;19935;-50
2023/11/06 06:31:33;;;;;;;;;;;15.50;88.40;;;;;;4014448;29;20312;-50
2023/11/06 06:34:15;;;;;;;;;;;15.50;88.10;;;;;;4014747;29;19943;-57
2023/11/06 06:36:56;;;;;;;;;;;15.60;89.30;;;;;;4026338;29;20026;-53
2023/11/06 06:39:37;;;;;;;;;;;15.60;89.30;;;;;;4029164;29;20048;-53
2023/11/06 06:42:19;;;;;;;;;;;15.70;89.30;;;;;;4028827;29;19939;-50
2023/11/06 06:44:59;;;;;;;;;;;15.70;89.10;;;;;;4026765;29;19935;-53
2023/11/06 06:47:40;;;;;;;;;;;15.80;88.90;;;;;;4013875;29;19939;-52
2023/11/06 06:50:21;;;;;;;;;;;15.80;88.60;;;;;;4015037;29;20295;-49
2023/11/06 06:53:02;;;;;;;;;;;15.90;88.30;;;;;;4014193;29;19983;-51
2023/11/06 06:55:43;;;;;;;;;;;15.90;88.00;;;;;;4036051;29;19979;-51
2023/11/06 06:58:26;;;;;;;;;;;15.90;87.80;;;;;;4029033;29;19939;-55
2023/11/06 07:01:08;;;;;;;;;;;15.90;87.80;;;;;;4015874;29;19964;-56
2023/11/06 07:03:49;;;;;;;;;;;15.90;87.60;;;;;;4024541;29;19939;-57
2023/11/06 07:06:31;;;;;;;;;;;15.90;87.40;;;;;;4013548;29;19943;-57
2023/11/06 07:09:11;;;;;;;;;;;15.90;87.10;;;;;;4012613;29;20280;-57
2023/11/06 07:11:52;;;;;;;;;;;15.90;87.10;;;;;;4014191;29;20339;-56
2023/11/06 07:14:34;;;;;;;;;;;15.80;87.20;;;;;;4013706;29;19984;-57
2023/11/06 07:17:14;;;;;;;;;;;15.80;86.90;;;;;;4013272;29;19983;-58
2023/11/06 07:19:55;;;;;;;;;;;15.80;87.10;;;;;;4012705;29;20469;-56
2023/11/06 07:22:36;;;;;;;;;;;15.90;87.00;;;;;;4027177;29;19983;-56
2023/11/06 07:25:17;;;;;;;;;;;15.90;86.40;;;;;;4028481;29;20252;-55
2023/11/06 07:27:58;;;;;;;;;;;15.90;87.70;;;;;;4027874;29;20025;-54
2023/11/06 07:30:40;;;;;;;;;;;15.90;87.10;;;;;;4052970;29;19938;-56
2023/11/06 07:33:21;;;;;;;;;;;15.90;86.50;;;;;;4047576;29;20302;-56
2023/11/06 07:36:04;;;;;;;;;;;16.00;85.40;;;;;;4052663;29;19973;-55
2023/11/06 07:38:45;;;;;;;;;;;16.00;85.10;;;;;;4040894;29;19938;-53
2023/11/06 07:41:26;;;;;;;;;;;16.10;84.70;;;;;;4043498;29;19934;-55
2023/11/06 07:44:06;;;;;;;;;;;16.10;85.00;;;;;;4043019;29;19938;-54
2023/11/06 07:46:49;;;;;;;;;;;16.20;83.60;;;;;;4032368;29;19938;-52
2023/11/06 07:49:30;;;;;;;;;;;16.20;82.80;;;;;;4035849;29;19949;-55
2023/11/06 07:52:10;;;;;;;;;;;16.20;83.40;;;;;;4028013;29;19978;-55
2023/11/06 07:54:51;;;;;;;;;;;16.20;81.90;;;;;;4032727;29;20079;-56
2023/11/06 07:57:31;;;;;;;;;;;16.20;81.70;;;;;;4029098;29;19948;-56
2023/11/06 08:00:13;;;;;;;;;;;16.20;81.40;;;;;;4043475;29;19934;-55
2023/11/06 08:02:55;;;;;;;;;;;16.20;80.90;;;;;;4036387;29;19950;-54
2023/11/06 08:05:37;;;;;;;;;;;16.20;80.60;;;;;;4035930;29;19942;-55
2023/11/06 08:08:19;;;;;;;;;;;16.20;80.50;;;;;;4035834;29;19938;-55
2023/11/06 08:11:00;;;;;;;;;;;16.10;80.10;;;;;;4043019;29;20015;-49
2023/11/06 08:13:41;;;;;;;;;;;16.10;80.10;;;;;;4027332;29;19935;-52
2023/11/06 08:16:22;;;;;;;;;;;16.00;80.50;;;;;;4036928;29;20026;-54
2023/11/06 08:19:04;;;;;;;;;;;16.00;80.50;;;;;;4031638;29;19935;-53
2023/11/06 08:21:45;;;;;;;;;;;15.90;80.60;;;;;;4049725;29;19939;-55
2023/11/06 08:24:26;;;;;;;;;;;15.80;80.70;;;;;;4042010;29;20725;-55
2023/11/06 08:27:08;;;;;;;;;;;15.80;81.00;;;;;;4026858;29;19954;-55
2023/11/06 08:29:49;;;;;;;;;;;15.80;81.30;;;;;;4015297;29;19935;-56
2023/11/06 08:32:29;;;;;;;;;;;15.70;81.50;;;;;;4028626;29;19991;-55
2023/11/06 08:35:11;;;;;;;;;;;15.70;82.00;;;;;;4027148;29;19938;-55
2023/11/06 08:37:52;;;;;;;;;;;15.60;82.40;;;;;;4004539;29;19938;-54
2023/11/06 08:40:33;;;;;;;;;;;15.60;82.80;;;;;;4027284;29;19939;-54
2023/11/06 08:43:14;;;;;;;;;;;15.60;83.10;;;;;;4028401;29;19939;-52
2023/11/06 08:45:56;;;;;;;;;;;15.70;83.10;;;;;;4019262;29;19959;-54
2023/11/06 08:48:41;;;;;;;;;;;15.70;82.80;;;;;;4042269;29;19938;-54
2023/11/06 08:51:23;;;;;;;;;;;15.80;83.40;;;;;;4041100;29;19967;-57
2023/11/06 08:54:04;;;;;;;;;;;15.80;82.30;;;;;;4038611;29;19965;-57
2023/11/06 08:56:45;;;;;;;;;;;15.80;82.20;;;;;;4042602;29;19934;-57
2023/11/06 08:59:25;;;;;;;;;;;15.80;82.10;;;;;;4040443;29;20418;-55
2023/11/06 09:02:06;;;;;;;;;;;15.80;82.10;;;;;;4042150;29;19974;-56
2023/11/06 09:04:47;;;;;;;;;;;15.80;82.10;;;;;;4021997;29;19935;-53
2023/11/06 09:07:30;;;;;;;;;;;15.70;82.10;;;;;;4026440;29;20019;-55
2023/11/06 09:10:11;;;;;;;;;;;15.70;82.20;;;;;;4026360;29;20039;-55
2023/11/06 09:12:51;;;;;;;;;;;15.60;82.30;;;;;;4040970;29;20294;-57
2023/11/06 09:15:33;;;;;;;;;;;15.60;82.50;;;;;;4041263;29;19938;-56
2023/11/06 09:18:17;;;;;;;;;;;15.50;82.60;;;;;;4041777;29;19938;-54
2023/11/06 09:20:58;;;;;;;;;;;15.40;82.90;;;;;;4038032;29;20076;-54
2023/11/06 09:23:40;;;;;;;;;;;15.40;83.20;;;;;;4038541;29;19980;-53
2023/11/06 09:26:21;;;;;;;;;;;15.40;83.50;;;;;;4031317;29;20472;-51
2023/11/06 09:29:03;;;;;;;;;;;15.30;83.70;;;;;;4042027;29;20030;-51
2023/11/06 09:31:45;;;;;;;;;;;15.30;83.90;;;;;;4033462;29;20413;-54
2023/11/06 09:34:26;;;;;;;;;;;15.30;84.20;;;;;;4039333;29;19938;-55
2023/11/06 09:37:06;;;;;;;;;;;15.30;84.50;;;;;;4029391;29;19935;-55
2023/11/06 09:39:49;;;;;;;;;;;15.20;84.70;;;;;;4029150;29;19934;-54
2023/11/06 09:42:30;;;;;;;;;;;15.20;85.00;;;;;;4037166;29;20100;-53
2023/11/06 09:45:11;;;;;;;;;;;15.20;86.00;;;;;;4041506;29;20026;-54
2023/11/06 09:47:52;;;;;;;;;;;15.20;85.40;;;;;;4026738;29;19939;-55
2023/11/06 09:50:33;;;;;;;;;;;15.20;85.60;;;;;;4026622;29;19940;-55
2023/11/06 09:53:15;;;;;;;;;;;15.20;85.70;;;;;;4026422;29;19939;-56
2023/11/06 09:55:58;;;;;;;;;;;15.20;85.80;;;;;;4035714;29;20476;-54
2023/11/06 09:58:39;;;;;;;;;;;15.10;85.90;;;;;;4043547;29;19978;-54
2023/11/06 10:01:23;;;;;;;;;;;15.10;85.90;;;;;;4045153;29;19934;-55
2023/11/06 10:04:04;;;;;;;;;;;15.10;86.00;;;;;;4035483;29;19937;-55
2023/11/06 10:06:45;;;;;;;;;;;15.00;86.10;;;;;;4030536;29;19978;-55
2023/11/06 10:09:27;;;;;;;;;;;15.00;86.20;;;;;;4030139;29;19935;-52
2023/11/06 10:12:18;;;;;;;;;;;15.00;86.20;;;;;;4041320;29;19956;-54
2023/11/06 10:14:59;;;;;;;;;;;15.00;86.30;;;;;;4044601;29;19934;-54
2023/11/06 10:17:40;;;;;;;;;;;15.00;86.30;;;;;;4030898;29;20406;-55
2023/11/06 10:20:26;;;;;;;;;;;15.00;86.40;;;;;;4056496;29;20090;-55
2023/11/06 10:23:07;;;;;;;;;;;14.90;86.40;;;;;;4060057;29;19970;-55
2023/11/06 10:25:47;;;;;;;;;;;14.90;86.50;;;;;;4028881;29;19935;-54
2023/11/06 10:28:30;;;;;;;;;;;14.90;86.50;;;;;;4043308;29;19997;-53
2023/11/06 10:31:11;;;;;;;;;;;14.90;86.50;;;;;;4033159;29;20300;-56
2023/11/06 10:33:51;;;;;;;;;;;14.90;86.50;;;;;;4028675;29;19935;-54
2023/11/06 10:36:32;;;;;;;;;;;14.90;86.30;;;;;;4029348;29;19970;-56
2023/11/06 10:39:13;;;;;;;;;;;14.80;86.20;;;;;;4002047;29;19939;-55
2023/11/06 10:42:00;;;;;;;;;;;14.80;86.40;;;;;;4014105;29;19934;-55
2023/11/06 10:44:42;;;;;;;;;;;14.80;86.50;;;;;;4028463;29;19939;-56
2023/11/06 10:47:26;;;;;;;;;;;14.80;86.60;;;;;;4031352;29;19982;-55
2023/11/06 10:50:11;;;;;;;;;;;14.80;87.60;;;;;;4037265;29;19934;-55
2023/11/06 10:52:53;;;;;;;;;;;14.80;86.80;;;;;;4038103;29;20371;-55
2023/11/06 10:55:34;;;;;;;;;;;14.80;86.90;;;;;;4041756;29;20054;-56
2023/11/06 10:58:16;;;;;;;;;;;14.80;86.90;;;;;;4039628;29;20007;-54
2023/11/06 11:00:59;;;;;;;;;;;14.80;86.90;;;;;;4025775;29;19950;-54
2023/11/06 11:03:40;;;;;;;;;;;14.80;87.80;;;;;;4030113;29;19982;-55
2023/11/06 11:06:22;;;;;;;;;;;14.80;86.80;;;;;;4027702;29;20782;-55
2023/11/06 11:09:03;;;;;;;;;;;14.70;86.70;;;;;;4027555;29;19939;-55
2023/11/06 11:11:44;;;;;;;;;;;14.70;86.80;;;;;;4029093;29;19962;-55
2023/11/06 11:14:25;;;;;;;;;;;14.70;86.90;;;;;;4026364;29;20271;-56
2023/11/06 11:17:11;;;;;;;;;;;14.70;86.90;;;;;;4025851;29;19983;-56
2023/11/06 11:19:54;;;;;;;;;;;14.70;87.00;;;;;;4035657;29;20379;-56
2023/11/06 11:23:00;;;;;;;;;;;14.70;87.00;;;;;;4026164;29;20026;-56
2023/11/06 11:25:58;;;;;;;;;;;14.70;86.90;;;;;;4013592;29;20027;-56
2023/11/06 11:28:55;;;;;;;;;;;14.70;86.90;;;;;;4028732;29;19978;-56
2023/11/06 11:31:37;;;;;;;;;;;14.70;87.00;;;;;;4024471;29;19983;-55
2023/11/06 11:34:26;;;;;;;;;;;14.70;87.00;;;;;;4015465;29;19970;-55
2023/11/06 11:37:23;;;;;;;;;;;14.70;87.00;;;;;;4040594;29;19939;-56
2023/11/06 11:40:04;;;;;;;;;;;14.70;87.90;;;;;;4025727;29;19935;-55
2023/11/06 11:42:45;;;;;;;;;;;14.70;87.10;;;;;;4021282;29;19974;-55
2023/11/06 11:45:30;;;;;;;;;;;14.60;87.10;;;;;;4036275;29;20374;-56
2023/11/06 11:48:10;;;;;;;;;;;14.70;87.30;;;;;;4035779;29;19970;-56
2023/11/06 11:50:52;;;;;;;;;;;14.70;87.30;;;;;;4017371;29;19938;-56
2023/11/06 11:53:35;;;;;;;;;;;14.60;87.20;;;;;;4026259;29;19939;-57
2023/11/06 11:56:34;;;;;;;;;;;14.60;87.10;;;;;;4031460;29;19939;-54
2023/11/06 11:59:17;;;;;;;;;;;14.60;87.00;;;;;;4039564;29;19938;-56
2023/11/06 12:01:59;;;;;;;;;;;14.60;87.00;;;;;;4014511;29;19938;-55
2023/11/06 12:04:40;;;;;;;;;;;14.60;86.90;;;;;;4035560;29;20052;-50
2023/11/06 12:07:22;;;;;;;;;;;14.60;86.90;;;;;;4032971;29;19982;-48
2023/11/06 12:10:03;;;;;;;;;;;14.60;86.90;;;;;;4035408;29;19934;-51
2023/11/06 12:12:44;;;;;;;;;;;14.60;87.00;;;;;;4033510;29;19982;-50
2023/11/06 12:15:30;;;;;;;;;;;14.60;87.00;;;;;;4031442;29;20067;-49
2023/11/06 12:18:11;;;;;;;;;;;14.60;87.10;;;;;;4028097;29;20033;-51
2023/11/06 12:20:55;;;;;;;;;;;14.60;87.30;;;;;;4026666;29;19943;-49
2023/11/06 12:23:38;;;;;;;;;;;14.60;88.10;;;;;;4027626;29;20288;-58
2023/11/06 12:26:19;;;;;;;;;;;14.60;87.30;;;;;;4039251;29;20397;-49
2023/11/06 12:29:00;;;;;;;;;;;14.60;87.30;;;;;;4036137;29;19941;-48
2023/11/06 12:31:41;;;;;;;;;;;14.60;87.40;;;;;;4013564;29;20273;-47
2023/11/06 12:34:22;;;;;;;;;;;14.60;87.50;;;;;;4009206;29;19966;-46
2023/11/06 12:37:03;;;;;;;;;;;14.60;88.10;;;;;;4025661;29;19939;-50
2023/11/06 12:39:46;;;;;;;;;;;14.60;89.30;;;;;;4010861;29;19939;-52
2023/11/06 12:42:29;;;;;;;;;;;14.60;89.90;;;;;;4022475;29;20375;-50
2023/11/06 12:45:25;;;;;;;;;;;14.70;90.10;;;;;;4023177;29;20299;-50
2023/11/06 12:48:21;;;;;;;;;;;14.80;90.30;;;;;;4009717;29;20397;-50
2023/11/06 12:51:05;;;;;;;;;;;14.90;90.20;;;;;;4021459;29;20406;-50
2023/11/06 12:53:47;;;;;;;;;;;14.90;90.40;;;;;;4012678;29;19938;-53
2023/11/06 12:56:30;;;;;;;;;;;15.00;90.20;;;;;;4009194;29;19939;-55
2023/11/06 12:59:12;;;;;;;;;;;15.10;90.40;;;;;;4019348;29;20015;-54
2023/11/06 13:01:53;;;;;;;;;;;15.20;90.60;;;;;;4012812;29;19938;-50
2023/11/06 13:04:36;;;;;;;;;;;15.30;90.80;;;;;;4013522;29;19978;-54
2023/11/06 13:07:17;;;;;;;;;;;15.50;90.60;;;;;;4021173;29;20423;-49
2023/11/06 13:09:59;;;;;;;;;;;15.70;90.50;;;;;;4018411;29;20379;-49
2023/11/06 13:12:41;;;;;;;;;;;15.90;90.30;;;;;;4016678;29;19964;-51
2023/11/06 13:15:23;;;;;;;;;;;16.10;90.10;;;;;;4017656;29;20355;-53
2023/11/06 13:18:04;;;;;;;;;;;16.20;89.90;;;;;;4013302;29;19955;-52
2023/11/06 13:20:47;;;;;;;;;;;16.30;89.60;;;;;;4016813;29;20498;-50
2023/11/06 13:23:28;;;;;;;;;;;16.30;90.00;;;;;;4016541;29;20398;-48
2023/11/06 13:26:09;;;;;;;;;;;16.40;88.90;;;;;;4015379;29;20378;-50
2023/11/06 13:28:51;;;;;;;;;;;16.40;88.70;;;;;;4019218;29;20019;-47
2023/11/06 13:31:33;;;;;;;;;;;16.40;89.40;;;;;;4017472;29;19935;-47
2023/11/06 13:34:14;;;;;;;;;;;16.40;88.60;;;;;;4021145;29;19939;-47
2023/11/06 13:36:56;;;;;;;;;;;16.50;88.30;;;;;;4020251;29;19988;-52
2023/11/06 13:39:37;;;;;;;;;;;16.60;88.00;;;;;;4021313;29;19938;-48
2023/11/06 13:42:19;;;;;;;;;;;16.70;87.60;;;;;;4018172;29;19942;-50
2023/11/06 13:45:02;;;;;;;;;;;16.80;87.30;;;;;;4023650;29;19953;-49
2023/11/06 13:47:42;;;;;;;;;;;16.80;86.90;;;;;;4023141;29;20091;-52
2023/11/06 13:50:29;;;;;;;;;;;16.80;86.50;;;;;;4022388;29;20771;-48
2023/11/06 13:53:11;;;;;;;;;;;16.90;86.30;;;;;;4022804;29;20064;-48
2023/11/06 13:55:56;;;;;;;;;;;16.90;86.00;;;;;;4015657;29;20985;-49
2023/11/06 13:58:44;;;;;;;;;;;16.80;85.90;;;;;;4018283;29;19987;-49
2023/11/06 14:01:35;;;;;;;;;;;16.80;85.90;;;;;;4018800;29;20072;-50
2023/11/06 14:04:17;;;;;;;;;;;16.70;85.80;;;;;;4012730;29;20076;-56
2023/11/06 14:06:59;;;;;;;;;;;16.80;85.80;;;;;;4022930;29;20444;-51
2023/11/06 14:09:46;;;;;;;;;;;16.70;85.80;;;;;;4021823;29;19939;-51
2023/11/06 14:12:27;;;;;;;;;;;16.70;85.80;;;;;;4013816;29;20109;-50
2023/11/06 14:15:09;;;;;;;;;;;16.70;85.90;;;;;;4018117;29;19939;-50
2023/11/06 14:17:53;;;;;;;;;;;16.60;86.00;;;;;;4017396;29;19987;-49
2023/11/06 14:20:37;;;;;;;;;;;16.50;86.10;;;;;;4015444;29;19984;-52
2023/11/06 14:23:19;;;;;;;;;;;16.50;86.30;;;;;;4018765;29;19934;-51
2023/11/06 14:26:00;;;;;;;;;;;16.40;86.50;;;;;;4016114;29;20391;-49
2023/11/06 14:28:40;;;;;;;;;;;16.30;86.70;;;;;;4022457;29;19954;-51
2023/11/06 14:31:21;;;;;;;;;;;16.30;86.80;;;;;;4017853;29;19935;-47
2023/11/06 14:34:03;;;;;;;;;;;16.20;87.00;;;;;;4022348;29;19935;-50
2023/11/06 14:36:44;;;;;;;;;;;16.20;87.20;;;;;;4020365;29;20043;-53
2023/11/06 14:39:25;;;;;;;;;;;16.10;87.20;;;;;;4016883;29;20424;-52
2023/11/06 14:42:07;;;;;;;;;;;16.10;87.50;;;;;;4019459;29;20387;-48
2023/11/06 14:44:47;;;;;;;;;;;16.00;87.70;;;;;;4019431;29;19955;-48
2023/11/06 14:47:28;;;;;;;;;;;16.00;87.80;;;;;;4014070;29;19938;-48
2023/11/06 14:50:12;;;;;;;;;;;16.00;88.10;;;;;;4013986;29;19939;-48
2023/11/06 14:52:53;;;;;;;;;;;15.90;88.10;;;;;;4013859;29;19939;-48
2023/11/06 14:55:34;;;;;;;;;;;15.90;88.40;;;;;;4013546;29;19935;-47
2023/11/06 14:58:15;;;;;;;;;;;15.80;89.30;;;;;;4014005;29;19939;-49
2023/11/06 15:00:55;;;;;;;;;;;15.80;88.60;;;;;;4016619;29;19938;-47
2023/11/06 15:03:36;;;;;;;;;;;15.80;88.80;;;;;;4028543;29;19992;-49
2023/11/06 15:06:18;;;;;;;;;;;15.70;88.80;;;;;;4020656;29;19943;-49
2023/11/06 15:08:59;;;;;;;;;;;15.70;89.00;;;;;;4019589;29;19939;-50
2023/11/06 15:11:40;;;;;;;;;;;15.70;89.10;;;;;;4025114;29;19938;-52
2023/11/06 15:14:21;;;;;;;;;;;15.60;89.20;;;;;;4026188;29;20405;-51
2023/11/06 15:17:02;;;;;;;;;;;15.60;89.30;;;;;;4014443;29;19935;-48
2023/11/06 15:19:42;;;;;;;;;;;15.60;89.30;;;;;;4019138;29;20048;-49
2023/11/06 15:22:25;;;;;;;;;;;15.60;89.50;;;;;;4028598;29;19939;-47
2023/11/06 15:25:09;;;;;;;;;;;15.50;89.60;;;;;;4027253;29;20268;-48
2023/11/06 15:27:52;;;;;;;;;;;15.50;89.80;;;;;;4025140;29;19946;-48
2023/11/06 15:30:33;;;;;;;;;;;15.50;90.00;;;;;;4025043;29;20048;-47
2023/11/06 15:33:14;;;;;;;;;;;15.50;90.00;;;;;;4043313;29;19935;-49
2023/11/06 15:35:55;;;;;;;;;;;15.50;90.00;;;;;;4043725;29;19943;-53
2023/11/06 15:38:38;;;;;;;;;;;15.60;89.90;;;;;;4029963;29;20034;-49
2023/11/06 15:41:19;;;;;;;;;;;15.70;89.60;;;;;;4016036;29;20698;-52